Springfield, Idaho
Current Conditions -  °F | °C
As of 9:53 PM on Saturday 20 Dec 2014 (Local Time) from KPIH Reporting Station
Light Rain Light Rain  
Wind Chill: 29°   Ceiling: 2200
Heat Index: 38°   Visibility: 10mi
Dew Point: 35°   Wind: 15mph
Humidity: 89%   Direction: 190°S
Pressure: 29.97"   Gusts: NA
Location:  43.08°N, 112.68°W
Report Text: KPIH 210453Z 19013KT 10SM -RA OVC022 03/02 A2997 RMK AO2 RAB41 SLP154 P0000 T00330017
Loading
Personal Weather Stations






























Interactive Weather Map New forecast layout! Learn more

10-Day Weather Forecast

Advertisements
Track Severe Weather on mobile